sensor_id;sensor_type;location;lat;lon;timestamp;temperature;humidity
14884;DHT22;7534;50.762;7.000;2023-07-13T00:01:02;17.60;99.90
14884;DHT22;7534;50.762;7.000;2023-07-13T00:03:37;17.70;99.90
14884;DHT22;7534;50.762;7.000;2023-07-13T00:06:03;17.70;99.90
14884;DHT22;7534;50.762;7.000;2023-07-13T00:08:32;17.60;99.90
14884;DHT22;7534;50.762;7.000;2023-07-13T00:11:02;17.50;99.90
14884;DHT22;7534;50.762;7.000;2023-07-13T00:13:33;17.70;99.90
14884;DHT22;7534;50.762;7.000;2023-07-13T00:15:59;17.50;99.90
14884;DHT22;7534;50.762;7.000;2023-07-13T00:18:26;17.60;99.90
14884;DHT22;7534;50.762;7.000;2023-07-13T00:20:56;17.50;99.90
14884;DHT22;7534;50.762;7.000;2023-07-13T00:23:33;17.50;99.90
14884;DHT22;7534;50.762;7.000;2023-07-13T00:26:04;17.50;99.90
14884;DHT22;7534;50.762;7.000;2023-07-13T00:28:35;17.50;99.90
14884;DHT22;7534;50.762;7.000;2023-07-13T00:31:05;17.50;99.90
14884;DHT22;7534;50.762;7.000;2023-07-13T00:33:32;17.50;99.90
14884;DHT22;7534;50.762;7.000;2023-07-13T00:35:59;17.50;99.90
14884;DHT22;7534;50.762;7.000;2023-07-13T00:38:25;17.40;99.90
14884;DHT22;7534;50.762;7.000;2023-07-13T00:40:51;17.40;99.90
14884;DHT22;7534;50.762;7.000;2023-07-13T00:43:21;17.30;99.90
14884;DHT22;7534;50.762;7.000;2023-07-13T00:48:27;17.40;99.90
14884;DHT22;7534;50.762;7.000;2023-07-13T00:51:07;17.40;99.90
14884;DHT22;7534;50.762;7.000;2023-07-13T00:53:34;17.40;99.90
14884;DHT22;7534;50.762;7.000;2023-07-13T00:56:05;17.30;99.90
14884;DHT22;7534;50.762;7.000;2023-07-13T00:58:37;17.30;99.90
14884;DHT22;7534;50.762;7.000;2023-07-13T01:01:09;17.30;99.90
14884;DHT22;7534;50.762;7.000;2023-07-13T01:03:37;17.30;99.90
14884;DHT22;7534;50.762;7.000;2023-07-13T01:06:04;17.30;99.90
14884;DHT22;7534;50.762;7.000;2023-07-13T01:08:30;17.20;99.90
14884;DHT22;7534;50.762;7.000;2023-07-13T01:10:57;17.10;99.90
14884;DHT22;7534;50.762;7.000;2023-07-13T01:13:29;17.10;99.90
14884;DHT22;7534;50.762;7.000;2023-07-13T01:16:11;17.10;99.90
14884;DHT22;7534;50.762;7.000;2023-07-13T01:18:44;17.00;99.90
14884;DHT22;7534;50.762;7.000;2023-07-13T01:21:12;17.00;99.90
14884;DHT22;7534;50.762;7.000;2023-07-13T01:23:39;16.90;99.90
14884;DHT22;7534;50.762;7.000;2023-07-13T01:26:07;16.90;99.90
14884;DHT22;7534;50.762;7.000;2023-07-13T01:28:39;16.90;99.90
14884;DHT22;7534;50.762;7.000;2023-07-13T01:31:06;16.90;99.90
14884;DHT22;7534;50.762;7.000;2023-07-13T01:33:32;16.80;99.90
14884;DHT22;7534;50.762;7.000;2023-07-13T01:36:04;16.90;99.90
14884;DHT22;7534;50.762;7.000;2023-07-13T01:38:39;16.80;99.90
14884;DHT22;7534;50.762;7.000;2023-07-13T01:41:13;16.80;99.90
14884;DHT22;7534;50.762;7.000;2023-07-13T01:43:39;16.80;99.90
14884;DHT22;7534;50.762;7.000;2023-07-13T01:46:04;16.80;99.90
14884;DHT22;7534;50.762;7.000;2023-07-13T01:48:30;16.70;99.90
14884;DHT22;7534;50.762;7.000;2023-07-13T01:50:57;16.80;99.90
14884;DHT22;7534;50.762;7.000;2023-07-13T01:53:28;16.70;99.90
14884;DHT22;7534;50.762;7.000;2023-07-13T01:55:56;16.80;99.90
14884;DHT22;7534;50.762;7.000;2023-07-13T01:58:24;16.70;99.90
14884;DHT22;7534;50.762;7.000;2023-07-13T02:00:52;16.70;99.90
14884;DHT22;7534;50.762;7.000;2023-07-13T02:03:19;16.60;99.90
14884;DHT22;7534;50.762;7.000;2023-07-13T02:05:48;16.70;99.90
14884;DHT22;7534;50.762;7.000;2023-07-13T02:08:16;16.60;99.90
14884;DHT22;7534;50.762;7.000;2023-07-13T02:10:42;16.70;99.90
14884;DHT22;7534;50.762;7.000;2023-07-13T02:13:08;16.80;99.90
14884;DHT22;7534;50.762;7.000;2023-07-13T02:15:38;16.70;99.90
14884;DHT22;7534;50.762;7.000;2023-07-13T02:18:08;16.80;99.90
14884;DHT22;7534;50.762;7.000;2023-07-13T02:20:34;16.80;99.90
14884;DHT22;7534;50.762;7.000;2023-07-13T02:23:03;16.90;99.90
14884;DHT22;7534;50.762;7.000;2023-07-13T02:25:32;16.90;99.90
14884;DHT22;7534;50.762;7.000;2023-07-13T02:28:03;16.90;99.90
14884;DHT22;7534;50.762;7.000;2023-07-13T02:30:38;17.10;99.90
14884;DHT22;7534;50.762;7.000;2023-07-13T02:33:09;16.90;99.90
14884;DHT22;7534;50.762;7.000;2023-07-13T02:35:35;16.90;99.90
14884;DHT22;7534;50.762;7.000;2023-07-13T02:38:01;16.80;99.90
14884;DHT22;7534;50.762;7.000;2023-07-13T02:40:37;16.80;99.90
14884;DHT22;7534;50.762;7.000;2023-07-13T02:43:12;16.80;99.90
14884;DHT22;7534;50.762;7.000;2023-07-13T02:45:44;16.80;99.90
14884;DHT22;7534;50.762;7.000;2023-07-13T02:48:13;16.80;99.90
14884;DHT22;7534;50.762;7.000;2023-07-13T02:50:43;16.70;99.90
14884;DHT22;7534;50.762;7.000;2023-07-13T02:53:10;16.60;99.90
14884;DHT22;7534;50.762;7.000;2023-07-13T02:55:36;16.70;99.90
14884;DHT22;7534;50.762;7.000;2023-07-13T02:58:02;16.70;99.90
14884;DHT22;7534;50.762;7.000;2023-07-13T03:00:28;16.70;99.90
14884;DHT22;7534;50.762;7.000;2023-07-13T03:02:54;16.60;99.90
14884;DHT22;7534;50.762;7.000;2023-07-13T03:05:23;16.50;99.90
14884;DHT22;7534;50.762;7.000;2023-07-13T03:07:49;16.50;99.90
14884;DHT22;7534;50.762;7.000;2023-07-13T03:10:15;16.50;99.90
14884;DHT22;7534;50.762;7.000;2023-07-13T03:12:42;16.40;99.90
14884;DHT22;7534;50.762;7.000;2023-07-13T03:15:08;16.30;99.90
14884;DHT22;7534;50.762;7.000;2023-07-13T03:17:34;16.30;99.90
14884;DHT22;7534;50.762;7.000;2023-07-13T03:20:00;16.30;99.90
14884;DHT22;7534;50.762;7.000;2023-07-13T03:22:26;16.20;99.90
14884;DHT22;7534;50.762;7.000;2023-07-13T03:24:51;16.20;99.90
14884;DHT22;7534;50.762;7.000;2023-07-13T03:27:17;16.00;99.90
14884;DHT22;7534;50.762;7.000;2023-07-13T03:29:43;16.10;99.90
14884;DHT22;7534;50.762;7.000;2023-07-13T03:32:09;16.00;99.90
14884;DHT22;7534;50.762;7.000;2023-07-13T03:34:35;16.10;99.90
14884;DHT22;7534;50.762;7.000;2023-07-13T03:37:02;16.20;99.90
14884;DHT22;7534;50.762;7.000;2023-07-13T03:39:28;16.20;99.90
14884;DHT22;7534;50.762;7.000;2023-07-13T03:41:54;16.20;99.90
14884;DHT22;7534;50.762;7.000;2023-07-13T03:44:20;16.30;99.90
14884;DHT22;7534;50.762;7.000;2023-07-13T03:46:56;16.30;99.90
14884;DHT22;7534;50.762;7.000;2023-07-13T03:49:21;16.40;99.90
14884;DHT22;7534;50.762;7.000;2023-07-13T03:52:01;16.60;99.90
14884;DHT22;7534;50.762;7.000;2023-07-13T03:54:27;16.50;99.90
14884;DHT22;7534;50.762;7.000;2023-07-13T03:56:53;16.60;99.90
14884;DHT22;7534;50.762;7.000;2023-07-13T03:59:19;16.70;99.90
14884;DHT22;7534;50.762;7.000;2023-07-13T04:02:00;16.70;99.90
14884;DHT22;7534;50.762;7.000;2023-07-13T04:04:27;16.80;99.90
14884;DHT22;7534;50.762;7.000;2023-07-13T04:06:55;16.60;99.90
14884;DHT22;7534;50.762;7.000;2023-07-13T04:09:34;16.60;99.90
14884;DHT22;7534;50.762;7.000;2023-07-13T04:12:03;16.70;99.90
14884;DHT22;7534;50.762;7.000;2023-07-13T04:17:43;16.80;99.90
14884;DHT22;7534;50.762;7.000;2023-07-13T04:20:14;16.80;99.90
14884;DHT22;7534;50.762;7.000;2023-07-13T04:22:52;16.90;99.90
14884;DHT22;7534;50.762;7.000;2023-07-13T04:25:21;17.00;99.90
14884;DHT22;7534;50.762;7.000;2023-07-13T04:27:50;17.10;99.90
14884;DHT22;7534;50.762;7.000;2023-07-13T04:30:28;17.20;99.90
14884;DHT22;7534;50.762;7.000;2023-07-13T04:33:07;17.40;99.90
14884;DHT22;7534;50.762;7.000;2023-07-13T04:35:36;17.40;99.90
14884;DHT22;7534;50.762;7.000;2023-07-13T04:38:09;17.50;99.90
14884;DHT22;7534;50.762;7.000;2023-07-13T04:40:37;17.70;99.90
14884;DHT22;7534;50.762;7.000;2023-07-13T04:43:02;18.10;99.90
14884;DHT22;7534;50.762;7.000;2023-07-13T04:45:31;18.60;99.90
14884;DHT22;7534;50.762;7.000;2023-07-13T04:48:01;19.30;99.90
14884;DHT22;7534;50.762;7.000;2023-07-13T04:50:32;20.80;99.90
14884;DHT22;7534;50.762;7.000;2023-07-13T04:55:36;24.70;99.90
14884;DHT22;7534;50.762;7.000;2023-07-13T04:58:04;25.50;95.50
14884;DHT22;7534;50.762;7.000;2023-07-13T05:00:31;25.00;94.90
14884;DHT22;7534;50.762;7.000;2023-07-13T05:02:57;24.80;94.70
14884;DHT22;7534;50.762;7.000;2023-07-13T05:05:26;24.90;94.40
14884;DHT22;7534;50.762;7.000;2023-07-13T05:07:53;24.80;94.10
14884;DHT22;7534;50.762;7.000;2023-07-13T05:10:19;24.20;94.50
14884;DHT22;7534;50.762;7.000;2023-07-13T05:12:45;23.50;95.20
14884;DHT22;7534;50.762;7.000;2023-07-13T05:17:37;22.40;99.50
14884;DHT22;7534;50.762;7.000;2023-07-13T05:20:05;22.00;99.90
14884;DHT22;7534;50.762;7.000;2023-07-13T05:22:31;21.80;99.90
14884;DHT22;7534;50.762;7.000;2023-07-13T05:24:57;21.20;99.90
14884;DHT22;7534;50.762;7.000;2023-07-13T05:27:23;20.80;99.90
14884;DHT22;7534;50.762;7.000;2023-07-13T05:29:49;21.10;99.90
14884;DHT22;7534;50.762;7.000;2023-07-13T05:32:15;21.90;99.60
14884;DHT22;7534;50.762;7.000;2023-07-13T05:34:42;22.40;98.20
14884;DHT22;7534;50.762;7.000;2023-07-13T05:37:08;22.90;97.30
14884;DHT22;7534;50.762;7.000;2023-07-13T05:39:34;22.70;96.80
14884;DHT22;7534;50.762;7.000;2023-07-13T05:42:00;22.30;97.50
14884;DHT22;7534;50.762;7.000;2023-07-13T05:44:25;21.90;98.30
14884;DHT22;7534;50.762;7.000;2023-07-13T05:46:51;21.50;98.90
14884;DHT22;7534;50.762;7.000;2023-07-13T05:49:17;21.30;99.90
14884;DHT22;7534;50.762;7.000;2023-07-13T05:51:42;20.90;99.90
14884;DHT22;7534;50.762;7.000;2023-07-13T05:54:08;20.90;99.90
14884;DHT22;7534;50.762;7.000;2023-07-13T05:56:34;20.60;99.90
14884;DHT22;7534;50.762;7.000;2023-07-13T05:59:00;20.40;99.90
14884;DHT22;7534;50.762;7.000;2023-07-13T06:01:26;20.40;99.90
14884;DHT22;7534;50.762;7.000;2023-07-13T06:03:52;20.60;99.90
14884;DHT22;7534;50.762;7.000;2023-07-13T06:06:17;20.80;99.90
14884;DHT22;7534;50.762;7.000;2023-07-13T06:08:43;20.80;99.90
14884;DHT22;7534;50.762;7.000;2023-07-13T06:11:21;20.70;99.90
14884;DHT22;7534;50.762;7.000;2023-07-13T06:13:49;20.70;99.90
14884;DHT22;7534;50.762;7.000;2023-07-13T06:16:15;20.70;99.90
14884;DHT22;7534;50.762;7.000;2023-07-13T06:18:42;20.90;99.90
14884;DHT22;7534;50.762;7.000;2023-07-13T06:21:12;21.20;99.90
14884;DHT22;7534;50.762;7.000;2023-07-13T06:23:54;21.70;99.90
14884;DHT22;7534;50.762;7.000;2023-07-13T06:26:21;21.80;84.90
14884;DHT22;7534;50.762;7.000;2023-07-13T06:28:47;22.40;82.90
14884;DHT22;7534;50.762;7.000;2023-07-13T06:31:14;22.80;81.10
14884;DHT22;7534;50.762;7.000;2023-07-13T06:33:41;23.00;79.50
14884;DHT22;7534;50.762;7.000;2023-07-13T06:36:07;23.10;79.20
14884;DHT22;7534;50.762;7.000;2023-07-13T06:38:34;23.10;78.80
14884;DHT22;7534;50.762;7.000;2023-07-13T06:41:00;23.30;78.90
14884;DHT22;7534;50.762;7.000;2023-07-13T06:43:26;23.40;78.10
14884;DHT22;7534;50.762;7.000;2023-07-13T06:45:54;23.70;77.30
14884;DHT22;7534;50.762;7.000;2023-07-13T06:48:21;23.70;76.00
14884;DHT22;7534;50.762;7.000;2023-07-13T06:50:48;23.80;75.40
14884;DHT22;7534;50.762;7.000;2023-07-13T06:53:19;24.00;76.20
14884;DHT22;7534;50.762;7.000;2023-07-13T06:55:46;24.30;75.50
14884;DHT22;7534;50.762;7.000;2023-07-13T06:58:12;24.70;75.00
14884;DHT22;7534;50.762;7.000;2023-07-13T07:00:42;25.50;72.60
14884;DHT22;7534;50.762;7.000;2023-07-13T07:03:08;28.20;64.40
14884;DHT22;7534;50.762;7.000;2023-07-13T07:05:33;30.30;54.20
14884;DHT22;7534;50.762;7.000;2023-07-13T07:07:59;32.50;64.80
14884;DHT22;7534;50.762;7.000;2023-07-13T07:10:26;34.50;58.50
14884;DHT22;7534;50.762;7.000;2023-07-13T07:12:52;35.40;55.30
14884;DHT22;7534;50.762;7.000;2023-07-13T07:15:18;37.20;52.50
14884;DHT22;7534;50.762;7.000;2023-07-13T07:17:44;38.40;49.80
14884;DHT22;7534;50.762;7.000;2023-07-13T07:20:10;39.60;48.10
14884;DHT22;7534;50.762;7.000;2023-07-13T07:22:36;40.90;46.80
14884;DHT22;7534;50.762;7.000;2023-07-13T07:25:05;41.10;46.20
14884;DHT22;7534;50.762;7.000;2023-07-13T07:27:31;40.80;45.90
14884;DHT22;7534;50.762;7.000;2023-07-13T07:29:57;40.30;46.10
14884;DHT22;7534;50.762;7.000;2023-07-13T07:32:23;39.90;46.40
14884;DHT22;7534;50.762;7.000;2023-07-13T07:34:49;39.10;46.90
14884;DHT22;7534;50.762;7.000;2023-07-13T07:37:17;37.50;48.70
14884;DHT22;7534;50.762;7.000;2023-07-13T07:39:45;35.40;50.60
14884;DHT22;7534;50.762;7.000;2023-07-13T07:42:11;34.50;52.20
14884;DHT22;7534;50.762;7.000;2023-07-13T07:44:38;33.20;36.60
14884;DHT22;7534;50.762;7.000;2023-07-13T07:47:06;33.20;37.10
14884;DHT22;7534;50.762;7.000;2023-07-13T07:49:31;33.90;36.40
14884;DHT22;7534;50.762;7.000;2023-07-13T07:51:57;34.60;35.50
14884;DHT22;7534;50.762;7.000;2023-07-13T07:54:23;36.10;34.70
14884;DHT22;7534;50.762;7.000;2023-07-13T07:56:49;37.30;31.80
14884;DHT22;7534;50.762;7.000;2023-07-13T07:59:15;37.30;31.10
14884;DHT22;7534;50.762;7.000;2023-07-13T08:01:40;36.20;32.40
14884;DHT22;7534;50.762;7.000;2023-07-13T08:04:06;35.80;32.30
14884;DHT22;7534;50.762;7.000;2023-07-13T08:06:32;36.00;32.70
14884;DHT22;7534;50.762;7.000;2023-07-13T08:08:59;36.70;31.90
14884;DHT22;7534;50.762;7.000;2023-07-13T08:11:27;36.30;31.00
14884;DHT22;7534;50.762;7.000;2023-07-13T08:13:52;36.00;32.00
14884;DHT22;7534;50.762;7.000;2023-07-13T08:16:18;36.20;31.50
14884;DHT22;7534;50.762;7.000;2023-07-13T08:18:45;35.50;32.50
14884;DHT22;7534;50.762;7.000;2023-07-13T08:21:11;34.70;32.90
14884;DHT22;7534;50.762;7.000;2023-07-13T08:23:36;34.90;33.40
14884;DHT22;7534;50.762;7.000;2023-07-13T08:26:03;35.20;33.50
14884;DHT22;7534;50.762;7.000;2023-07-13T08:28:30;35.00;33.30
14884;DHT22;7534;50.762;7.000;2023-07-13T08:31:05;34.50;33.50
14884;DHT22;7534;50.762;7.000;2023-07-13T08:33:34;34.40;33.70
14884;DHT22;7534;50.762;7.000;2023-07-13T08:36:01;34.30;33.80
14884;DHT22;7534;50.762;7.000;2023-07-13T08:38:27;35.00;33.30
14884;DHT22;7534;50.762;7.000;2023-07-13T08:40:55;35.00;33.30
14884;DHT22;7534;50.762;7.000;2023-07-13T08:43:27;35.30;33.00
14884;DHT22;7534;50.762;7.000;2023-07-13T08:46:41;37.20;30.70
14884;DHT22;7534;50.762;7.000;2023-07-13T08:51:46;37.10;29.20
14884;DHT22;7534;50.762;7.000;2023-07-13T08:54:31;35.90;30.90
14884;DHT22;7534;50.762;7.000;2023-07-13T08:57:13;36.10;30.90
14884;DHT22;7534;50.762;7.000;2023-07-13T08:59:41;36.70;30.60
14884;DHT22;7534;50.762;7.000;2023-07-13T09:05:02;37.40;30.00
14884;DHT22;7534;50.762;7.000;2023-07-13T09:10:35;36.40;31.10
14884;DHT22;7534;50.762;7.000;2023-07-13T09:13:26;36.80;30.50
14884;DHT22;7534;50.762;7.000;2023-07-13T09:16:05;37.30;30.40
14884;DHT22;7534;50.762;7.000;2023-07-13T09:18:38;37.50;30.00
14884;DHT22;7534;50.762;7.000;2023-07-13T09:21:26;37.60;29.90
14884;DHT22;7534;50.762;7.000;2023-07-13T09:24:00;38.30;28.80
14884;DHT22;7534;50.762;7.000;2023-07-13T09:26:45;38.50;28.80
14884;DHT22;7534;50.762;7.000;2023-07-13T09:29:32;38.70;28.60
14884;DHT22;7534;50.762;7.000;2023-07-13T09:32:03;38.00;28.40
14884;DHT22;7534;50.762;7.000;2023-07-13T09:34:33;36.50;29.80
14884;DHT22;7534;50.762;7.000;2023-07-13T09:36:59;35.80;31.30
14884;DHT22;7534;50.762;7.000;2023-07-13T09:39:30;35.30;32.00
14884;DHT22;7534;50.762;7.000;2023-07-13T09:42:14;35.20;31.90
14884;DHT22;7534;50.762;7.000;2023-07-13T09:44:52;33.90;33.70
14884;DHT22;7534;50.762;7.000;2023-07-13T09:47:24;32.30;36.00
14884;DHT22;7534;50.762;7.000;2023-07-13T09:50:06;32.60;36.80
14884;DHT22;7534;50.762;7.000;2023-07-13T09:52:53;33.40;35.80
14884;DHT22;7534;50.762;7.000;2023-07-13T09:57:51;32.50;36.70
14884;DHT22;7534;50.762;7.000;2023-07-13T10:00:25;31.50;38.70
14884;DHT22;7534;50.762;7.000;2023-07-13T10:05:44;32.00;38.50
14884;DHT22;7534;50.762;7.000;2023-07-13T10:08:28;31.40;39.80
14884;DHT22;7534;50.762;7.000;2023-07-13T10:13:51;29.60;42.00
14884;DHT22;7534;50.762;7.000;2023-07-13T10:16:37;29.40;42.90
14884;DHT22;7534;50.762;7.000;2023-07-13T10:19:26;28.90;45.30
14884;DHT22;7534;50.762;7.000;2023-07-13T10:22:14;29.00;45.00
14884;DHT22;7534;50.762;7.000;2023-07-13T10:24:49;30.20;43.10
14884;DHT22;7534;50.762;7.000;2023-07-13T10:27:19;31.10;40.50
14884;DHT22;7534;50.762;7.000;2023-07-13T10:29:54;31.30;40.90
14884;DHT22;7534;50.762;7.000;2023-07-13T10:32:26;30.40;42.60
14884;DHT22;7534;50.762;7.000;2023-07-13T10:34:52;29.70;42.00
14884;DHT22;7534;50.762;7.000;2023-07-13T10:37:31;29.40;42.50
14884;DHT22;7534;50.762;7.000;2023-07-13T10:40:15;29.60;42.60
14884;DHT22;7534;50.762;7.000;2023-07-13T10:42:47;30.20;42.30
14884;DHT22;7534;50.762;7.000;2023-07-13T10:45:18;30.20;39.00
14884;DHT22;7534;50.762;7.000;2023-07-13T10:47:47;30.10;38.60
14884;DHT22;7534;50.762;7.000;2023-07-13T10:50:21;29.50;39.90
14884;DHT22;7534;50.762;7.000;2023-07-13T10:52:52;29.40;39.20
14884;DHT22;7534;50.762;7.000;2023-07-13T10:55:35;29.30;40.30
14884;DHT22;7534;50.762;7.000;2023-07-13T10:58:22;30.00;39.90
14884;DHT22;7534;50.762;7.000;2023-07-13T11:01:12;30.60;37.70
14884;DHT22;7534;50.762;7.000;2023-07-13T11:04:18;31.00;37.60
14884;DHT22;7534;50.762;7.000;2023-07-13T11:06:47;29.90;38.10
14884;DHT22;7534;50.762;7.000;2023-07-13T11:17:35;28.80;38.60
14884;DHT22;7534;50.762;7.000;2023-07-13T11:25:35;27.60;40.50
14884;DHT22;7534;50.762;7.000;2023-07-13T11:28:24;27.40;42.30
14884;DHT22;7534;50.762;7.000;2023-07-13T11:36:16;27.80;43.20
14884;DHT22;7534;50.762;7.000;2023-07-13T11:39:03;28.10;42.30
14884;DHT22;7534;50.762;7.000;2023-07-13T11:41:43;27.90;41.60
14884;DHT22;7534;50.762;7.000;2023-07-13T11:44:20;28.10;42.20
14884;DHT22;7534;50.762;7.000;2023-07-13T11:46:49;27.70;40.70
14884;DHT22;7534;50.762;7.000;2023-07-13T11:49:24;27.30;42.20
14884;DHT22;7534;50.762;7.000;2023-07-13T11:51:53;27.10;42.50
14884;DHT22;7534;50.762;7.000;2023-07-13T11:54:46;26.70;43.40
14884;DHT22;7534;50.762;7.000;2023-07-13T11:57:30;26.20;44.00
14884;DHT22;7534;50.762;7.000;2023-07-13T12:00:23;26.10;46.00
14884;DHT22;7534;50.762;7.000;2023-07-13T12:02:55;26.20;52.90
14884;DHT22;7534;50.762;7.000;2023-07-13T12:05:22;26.40;52.60
14884;DHT22;7534;50.762;7.000;2023-07-13T12:07:51;26.60;52.10
14884;DHT22;7534;50.762;7.000;2023-07-13T12:10:21;26.60;51.20
14884;DHT22;7534;50.762;7.000;2023-07-13T12:13:02;26.60;51.60
14884;DHT22;7534;50.762;7.000;2023-07-13T12:15:43;26.60;53.50
14884;DHT22;7534;50.762;7.000;2023-07-13T12:18:22;26.30;53.80
14884;DHT22;7534;50.762;7.000;2023-07-13T12:20:50;26.00;55.80
14884;DHT22;7534;50.762;7.000;2023-07-13T12:25:54;25.80;65.80
14884;DHT22;7534;50.762;7.000;2023-07-13T12:31:23;24.80;67.30
14884;DHT22;7534;50.762;7.000;2023-07-13T12:36:25;24.90;69.50
14884;DHT22;7534;50.762;7.000;2023-07-13T12:38:52;25.20;67.40
14884;DHT22;7534;50.762;7.000;2023-07-13T12:41:18;25.50;64.90
14884;DHT22;7534;50.762;7.000;2023-07-13T12:43:45;26.00;63.70
14884;DHT22;7534;50.762;7.000;2023-07-13T12:46:20;26.60;48.80
14884;DHT22;7534;50.762;7.000;2023-07-13T12:48:53;26.70;47.80
14884;DHT22;7534;50.762;7.000;2023-07-13T12:51:26;26.90;47.20
14884;DHT22;7534;50.762;7.000;2023-07-13T12:54:05;27.30;47.10
14884;DHT22;7534;50.762;7.000;2023-07-13T12:56:37;27.50;46.10
14884;DHT22;7534;50.762;7.000;2023-07-13T12:59:04;27.70;47.40
14884;DHT22;7534;50.762;7.000;2023-07-13T13:01:34;27.80;43.80
14884;DHT22;7534;50.762;7.000;2023-07-13T13:04:04;27.60;43.40
14884;DHT22;7534;50.762;7.000;2023-07-13T13:06:34;27.40;43.50
14884;DHT22;7534;50.762;7.000;2023-07-13T13:09:02;27.60;44.10
14884;DHT22;7534;50.762;7.000;2023-07-13T13:11:31;27.90;42.50
14884;DHT22;7534;50.762;7.000;2023-07-13T13:13:57;28.20;41.90
14884;DHT22;7534;50.762;7.000;2023-07-13T13:19:20;28.30;42.70
14884;DHT22;7534;50.762;7.000;2023-07-13T13:21:53;27.90;42.60
14884;DHT22;7534;50.762;7.000;2023-07-13T13:24:23;27.80;43.10
14884;DHT22;7534;50.762;7.000;2023-07-13T13:26:51;27.70;44.40
14884;DHT22;7534;50.762;7.000;2023-07-13T13:29:20;27.80;44.20
14884;DHT22;7534;50.762;7.000;2023-07-13T13:31:50;27.80;43.90
14884;DHT22;7534;50.762;7.000;2023-07-13T13:34:18;28.00;44.30
14884;DHT22;7534;50.762;7.000;2023-07-13T13:36:47;28.00;44.60
14884;DHT22;7534;50.762;7.000;2023-07-13T13:39:22;27.90;45.00
14884;DHT22;7534;50.762;7.000;2023-07-13T13:41:51;28.20;45.00
14884;DHT22;7534;50.762;7.000;2023-07-13T13:44:19;28.40;43.60
14884;DHT22;7534;50.762;7.000;2023-07-13T13:46:48;28.60;43.20
14884;DHT22;7534;50.762;7.000;2023-07-13T13:49:25;28.40;42.40
14884;DHT22;7534;50.762;7.000;2023-07-13T13:51:53;28.70;43.10
14884;DHT22;7534;50.762;7.000;2023-07-13T13:54:21;29.00;42.60
14884;DHT22;7534;50.762;7.000;2023-07-13T13:56:50;29.10;40.90
14884;DHT22;7534;50.762;7.000;2023-07-13T13:59:17;28.80;40.20
14884;DHT22;7534;50.762;7.000;2023-07-13T14:01:46;28.50;42.20
14884;DHT22;7534;50.762;7.000;2023-07-13T14:04:21;28.80;42.30
14884;DHT22;7534;50.762;7.000;2023-07-13T14:06:47;29.10;40.70
14884;DHT22;7534;50.762;7.000;2023-07-13T14:09:16;29.00;40.10
14884;DHT22;7534;50.762;7.000;2023-07-13T14:11:43;28.80;40.20
14884;DHT22;7534;50.762;7.000;2023-07-13T14:14:22;28.40;41.30
14884;DHT22;7534;50.762;7.000;2023-07-13T14:16:52;28.70;41.50
14884;DHT22;7534;50.762;7.000;2023-07-13T14:19:20;29.10;41.00
14884;DHT22;7534;50.762;7.000;2023-07-13T14:21:46;29.40;41.10
14884;DHT22;7534;50.762;7.000;2023-07-13T14:24:14;29.60;40.50
14884;DHT22;7534;50.762;7.000;2023-07-13T14:26:41;29.60;40.80
14884;DHT22;7534;50.762;7.000;2023-07-13T14:29:16;29.50;39.90
14884;DHT22;7534;50.762;7.000;2023-07-13T14:31:44;29.40;40.60
14884;DHT22;7534;50.762;7.000;2023-07-13T14:34:11;29.50;40.40
14884;DHT22;7534;50.762;7.000;2023-07-13T14:36:48;29.00;38.50
14884;DHT22;7534;50.762;7.000;2023-07-13T14:39:18;28.60;39.60
14884;DHT22;7534;50.762;7.000;2023-07-13T14:41:52;28.80;39.60
14884;DHT22;7534;50.762;7.000;2023-07-13T14:44:28;28.80;39.70
14884;DHT22;7534;50.762;7.000;2023-07-13T14:46:58;28.30;39.30
14884;DHT22;7534;50.762;7.000;2023-07-13T14:49:38;27.80;40.30
14884;DHT22;7534;50.762;7.000;2023-07-13T14:52:21;27.50;41.90
14884;DHT22;7534;50.762;7.000;2023-07-13T14:54:49;27.50;42.30
14884;DHT22;7534;50.762;7.000;2023-07-13T14:57:19;27.70;42.90
14884;DHT22;7534;50.762;7.000;2023-07-13T14:59:46;27.70;42.60
14884;DHT22;7534;50.762;7.000;2023-07-13T15:02:18;27.90;41.20
14884;DHT22;7534;50.762;7.000;2023-07-13T15:04:52;28.10;41.00
14884;DHT22;7534;50.762;7.000;2023-07-13T15:07:20;28.40;40.20
14884;DHT22;7534;50.762;7.000;2023-07-13T15:09:47;28.80;40.80
14884;DHT22;7534;50.762;7.000;2023-07-13T15:12:14;28.90;39.20
14884;DHT22;7534;50.762;7.000;2023-07-13T15:14:39;29.10;39.80
14884;DHT22;7534;50.762;7.000;2023-07-13T15:17:23;28.50;39.50
14884;DHT22;7534;50.762;7.000;2023-07-13T15:19:53;28.00;40.40
14884;DHT22;7534;50.762;7.000;2023-07-13T15:22:19;27.80;41.60
14884;DHT22;7534;50.762;7.000;2023-07-13T15:24:44;28.00;41.70
14884;DHT22;7534;50.762;7.000;2023-07-13T15:27:13;28.40;40.20
14884;DHT22;7534;50.762;7.000;2023-07-13T15:29:39;28.60;39.80
14884;DHT22;7534;50.762;7.000;2023-07-13T15:32:13;28.60;39.70
14884;DHT22;7534;50.762;7.000;2023-07-13T15:34:39;28.40;39.70
14884;DHT22;7534;50.762;7.000;2023-07-13T15:37:14;28.40;40.20
14884;DHT22;7534;50.762;7.000;2023-07-13T15:39:41;28.30;40.80
14884;DHT22;7534;50.762;7.000;2023-07-13T15:42:18;28.10;40.90
14884;DHT22;7534;50.762;7.000;2023-07-13T15:44:45;27.90;41.80
14884;DHT22;7534;50.762;7.000;2023-07-13T15:47:13;27.90;41.80
14884;DHT22;7534;50.762;7.000;2023-07-13T15:49:41;27.90;42.10
14884;DHT22;7534;50.762;7.000;2023-07-13T15:52:17;27.50;42.10
14884;DHT22;7534;50.762;7.000;2023-07-13T15:54:48;27.10;43.70
14884;DHT22;7534;50.762;7.000;2023-07-13T15:57:14;26.80;44.40
14884;DHT22;7534;50.762;7.000;2023-07-13T15:59:41;26.50;45.50
14884;DHT22;7534;50.762;7.000;2023-07-13T16:02:19;26.40;45.50
14884;DHT22;7534;50.762;7.000;2023-07-13T16:04:48;26.50;46.40
14884;DHT22;7534;50.762;7.000;2023-07-13T16:07:16;26.80;45.30
14884;DHT22;7534;50.762;7.000;2023-07-13T16:09:44;27.00;45.00
14884;DHT22;7534;50.762;7.000;2023-07-13T16:12:12;27.30;44.80
14884;DHT22;7534;50.762;7.000;2023-07-13T16:14:39;27.20;44.90
14884;DHT22;7534;50.762;7.000;2023-07-13T16:17:13;27.40;45.20
14884;DHT22;7534;50.762;7.000;2023-07-13T16:19:40;27.50;44.60
14884;DHT22;7534;50.762;7.000;2023-07-13T16:22:18;27.50;45.10
14884;DHT22;7534;50.762;7.000;2023-07-13T16:24:48;27.20;45.40
14884;DHT22;7534;50.762;7.000;2023-07-13T16:27:15;27.10;45.80
14884;DHT22;7534;50.762;7.000;2023-07-13T16:29:41;26.90;47.70
14884;DHT22;7534;50.762;7.000;2023-07-13T16:32:14;26.60;48.80
14884;DHT22;7534;50.762;7.000;2023-07-13T16:34:42;26.20;50.90
14884;DHT22;7534;50.762;7.000;2023-07-13T16:37:18;25.80;52.90
14884;DHT22;7534;50.762;7.000;2023-07-13T16:39:52;25.50;54.80
14884;DHT22;7534;50.762;7.000;2023-07-13T16:42:21;25.20;56.10
14884;DHT22;7534;50.762;7.000;2023-07-13T16:44:47;24.80;57.90
14884;DHT22;7534;50.762;7.000;2023-07-13T16:47:14;24.40;59.80
14884;DHT22;7534;50.762;7.000;2023-07-13T16:49:42;24.40;60.90
14884;DHT22;7534;50.762;7.000;2023-07-13T16:52:14;24.40;61.00
14884;DHT22;7534;50.762;7.000;2023-07-13T16:54:45;24.40;61.30
14884;DHT22;7534;50.762;7.000;2023-07-13T16:57:30;24.30;61.60
14884;DHT22;7534;50.762;7.000;2023-07-13T16:59:59;24.30;62.30
14884;DHT22;7534;50.762;7.000;2023-07-13T17:02:34;24.50;62.40